Time;durP1;ratioP1;P1;durP2;ratioP2;P2;SDS_P1;SDS_P2;PMS_P1;PMS_P2;Temp;Humidity;BMP_temperature;BMP_pressure;BME280_temperature;BME280_humidity;BME280_pressure;Samples;Min_cycle;Max_cycle;Signal;HPM_P1;HPM_P2
2023/01/22 00:00:15;;;;;;;;;41.25;32.00;;;;;5.11;49.05;102706.25;5097939;27;52794;-65
2023/01/22 00:02:41;;;;;;;;;37.75;31.00;;;;;5.12;48.71;102709.84;5095297;27;46145;-66
2023/01/22 00:05:06;;;;;;;;;32.25;30.00;;;;;4.97;48.39;102688.34;5095161;27;55750;-65
2023/01/22 00:07:32;;;;;;;;;50.25;27.00;;;;;5.06;48.64;102704.06;5077103;27;45392;-63
2023/01/22 00:09:58;;;;;;;;;39.50;35.50;;;;;5.06;49.09;102706.69;5094924;27;45501;-64
2023/01/22 00:12:24;;;;;;;;;56.50;43.00;;;;;5.02;48.87;102687.00;5091554;27;46201;-64
2023/01/22 00:14:49;;;;;;;;;41.50;29.75;;;;;4.34;49.21;102566.78;5092370;27;45354;-69
2023/01/22 00:17:15;;;;;;;;;40.50;33.50;;;;;5.01;48.92;102702.75;5095529;27;45468;-64
2023/01/22 00:19:40;;;;;;;;;46.00;36.25;;;;;5.03;49.30;102707.38;5096919;27;45361;-63
2023/01/22 00:22:05;;;;;;;;;39.00;33.75;;;;;4.99;49.24;102687.66;5095490;27;51537;-67
2023/01/22 00:24:31;;;;;;;;;42.00;33.50;;;;;4.79;48.92;102638.41;5101555;27;45598;-63
2023/01/22 00:26:56;;;;;;;;;57.75;34.75;;;;;5.16;49.30;102698.69;5094453;27;49016;-66
2023/01/22 00:29:21;;;;;;;;;48.75;36.50;;;;;5.16;49.07;102701.34;5096965;27;45627;-65
2023/01/22 00:31:47;;;;;;;;;43.75;36.25;;;;;5.13;49.17;102699.38;5095194;27;46181;-66
2023/01/22 00:34:12;;;;;;;;;43.75;34.00;;;;;5.11;49.33;102697.41;5095763;27;45549;-63
2023/01/22 00:36:39;;;;;;;;;45.25;35.75;;;;;5.09;49.47;102688.41;5099837;27;45545;-66
2023/01/22 00:39:05;;;;;;;;;38.50;32.50;;;;;4.98;49.19;102672.59;5098421;27;45658;-63
2023/01/22 00:41:30;;;;;;;;;40.25;30.75;;;;;5.13;49.41;102693.13;5097311;27;46052;-65
2023/01/22 00:43:55;;;;;;;;;36.75;30.25;;;;;5.08;49.18;102699.78;5095350;27;45504;-66
2023/01/22 00:46:21;;;;;;;;;42.50;34.25;;;;;4.92;49.15;102695.00;5097859;27;45575;-64
2023/01/22 00:48:49;;;;;;;;;41.75;36.25;;;;;4.97;49.38;102704.25;5090118;27;45619;-64
2023/01/22 00:51:15;;;;;;;;;44.25;36.50;;;;;4.98;49.47;102709.69;5092470;27;45406;-65
2023/01/22 00:53:42;;;;;;;;;48.50;33.75;;;;;5.01;49.35;102705.41;5097365;27;45298;-67
2023/01/22 00:56:09;;;;;;;;;45.50;36.25;;;;;5.00;49.73;102688.59;5098173;27;45387;-64
2023/01/22 00:58:34;;;;;;;;;41.25;35.75;;;;;5.04;49.38;102689.78;5096114;27;45448;-61
2023/01/22 01:01:03;;;;;;;;;58.25;43.00;;;;;5.04;49.97;102681.81;5097549;27;45487;-64
2023/01/22 01:03:30;;;;;;;;;38.50;32.00;;;;;5.12;50.10;102691.31;5097268;27;45393;-64
2023/01/22 01:06:00;;;;;;;;;43.00;36.00;;;;;5.12;48.49;102689.56;5097587;27;45444;-68
2023/01/22 01:08:27;;;;;;;;;44.25;36.00;;;;;5.08;49.27;102682.19;5097888;27;45497;-65
2023/01/22 01:10:57;;;;;;;;;49.25;36.50;;;;;5.04;48.69;102676.53;5096852;27;46407;-65
2023/01/22 01:13:24;;;;;;;;;46.75;36.75;;;;;4.92;49.72;102650.91;5092793;27;45374;-65
2023/01/22 01:15:49;;;;;;;;;36.25;30.00;;;;;5.09;49.19;102675.16;5085224;27;45449;-63
2023/01/22 01:18:16;;;;;;;;;48.25;37.50;;;;;5.08;48.79;102676.91;5094147;27;45510;-67
2023/01/22 01:20:41;;;;;;;;;41.00;35.25;;;;;4.94;49.19;102661.63;5090399;27;45480;-68
2023/01/22 01:23:07;;;;;;;;;35.25;29.25;;;;;5.09;49.20;102678.72;5094104;27;45390;-67
2023/01/22 01:25:32;;;;;;;;;38.50;34.75;;;;;4.13;48.78;102508.72;5099099;27;45407;-66
2023/01/22 01:27:59;;;;;;;;;36.50;30.00;;;;;4.94;48.97;102656.31;5099555;27;45381;-65
2023/01/22 01:30:24;;;;;;;;;51.25;38.25;;;;;5.11;49.74;102686.78;5098881;27;46432;-66
2023/01/22 01:32:49;;;;;;;;;43.75;34.25;;;;;4.99;49.11;102669.13;5094343;27;45429;-66
2023/01/22 01:35:15;;;;;;;;;37.50;32.25;;;;;5.10;49.37;102695.56;5095385;27;58619;-66
2023/01/22 01:37:40;;;;;;;;;42.00;35.00;;;;;5.13;49.22;102696.72;5094383;27;45287;-64
2023/01/22 01:40:06;;;;;;;;;47.25;36.50;;;;;5.15;49.23;102697.78;5095076;27;45401;-65
2023/01/22 01:42:35;;;;;;;;;42.50;32.50;;;;;5.17;49.06;102698.81;5090434;27;45436;-68
2023/01/22 01:45:19;;;;;;;;;45.25;35.75;;;;;4.57;49.08;102589.81;5096653;27;45406;-65
2023/01/22 01:47:47;;;;;;;;;50.75;36.25;;;;;5.14;48.56;102698.56;5097269;27;45639;-66
2023/01/22 01:50:13;;;;;;;;;43.75;30.50;;;;;5.07;49.51;102680.34;5078178;27;46100;-67
2023/01/22 01:52:39;;;;;;;;;56.50;43.50;;;;;5.07;49.45;102663.53;5095204;27;45412;-65
2023/01/22 01:55:05;;;;;;;;;45.50;36.50;;;;;5.18;48.98;102675.91;5096002;27;45428;-63
2023/01/22 01:57:33;;;;;;;;;49.75;38.25;;;;;5.23;48.95;102673.59;5095609;27;45398;-66
2023/01/22 02:00:01;;;;;;;;;38.25;29.25;;;;;5.32;48.72;102682.28;5095809;27;45506;-67
2023/01/22 02:02:26;;;;;;;;;40.25;33.25;;;;;5.35;48.93;102688.75;5096181;27;45557;-66
2023/01/22 02:04:52;;;;;;;;;49.75;35.00;;;;;5.39;48.48;102683.69;5092156;27;55623;-65
2023/01/22 02:07:19;;;;;;;;;43.75;32.50;;;;;5.34;48.64;102670.97;5095996;27;45448;-66
2023/01/22 02:09:45;;;;;;;;;45.75;35.00;;;;;5.30;48.79;102671.56;5092657;27;45424;-64
2023/01/22 02:12:10;;;;;;;;;45.00;31.50;;;;;5.23;48.49;102666.59;5095970;27;45556;-67
2023/01/22 02:14:42;;;;;;;;;41.50;30.50;;;;;5.27;48.42;102679.25;5095210;27;45768;-65
2023/01/22 02:17:19;;;;;;;;;35.25;29.50;;;;;5.27;48.17;102691.59;5096027;27;45494;-66
2023/01/22 02:19:45;;;;;;;;;37.25;35.50;;;;;5.24;48.49;102697.56;5096418;27;46900;-66
2023/01/22 02:22:13;;;;;;;;;45.75;36.25;;;;;5.11;48.12;102687.72;5095608;27;45433;-63
2023/01/22 02:24:38;;;;;;;;;39.00;34.75;;;;;5.19;48.60;102696.28;5095426;27;45536;-67
2023/01/22 02:27:03;;;;;;;;;18.75;14.00;;;;;5.07;48.35;102671.47;5092334;27;45302;-64
2023/01/22 02:29:29;;;;;;;;;42.00;36.25;;;;;5.17;48.21;102692.59;5093468;27;46016;-63
2023/01/22 02:31:54;;;;;;;;;41.00;32.50;;;;;5.19;48.30;102690.97;5094869;27;59924;-64
2023/01/22 02:34:23;;;;;;;;;44.75;33.50;;;;;5.19;48.13;102692.72;5095794;27;45490;-65
2023/01/22 02:36:49;;;;;;;;;48.00;39.75;;;;;5.17;48.54;102684.66;5093565;27;45885;-66
2023/01/22 02:39:15;;;;;;;;;53.00;36.50;;;;;5.14;48.48;102672.06;5093380;27;45471;-63
2023/01/22 02:41:40;;;;;;;;;55.75;38.25;;;;;5.27;48.58;102688.94;5093814;27;48411;-63
2023/01/22 02:44:06;;;;;;;;;51.25;39.00;;;;;5.28;48.45;102675.81;5077487;27;45475;-67
2023/01/22 02:46:32;;;;;;;;;45.00;36.00;;;;;5.29;48.47;102684.69;5086363;27;45409;-66
2023/01/22 02:48:57;;;;;;;;;42.25;38.25;;;;;5.30;48.69;102683.91;5095989;27;45441;-66
2023/01/22 02:51:23;;;;;;;;;50.25;36.25;;;;;5.25;48.18;102674.66;5096792;27;45422;-62
2023/01/22 02:53:49;;;;;;;;;50.00;36.50;;;;;5.26;48.52;102685.38;5077203;27;45472;-63
2023/01/22 02:56:14;;;;;;;;;42.25;36.50;;;;;5.25;48.90;102696.78;5096567;27;45547;-62
2023/01/22 02:58:40;;;;;;;;;49.75;38.50;;;;;5.21;48.38;102692.03;5097050;27;45712;-65
2023/01/22 03:01:19;;;;;;;;;51.50;34.50;;;;;5.15;48.34;102702.16;5095566;27;46123;-64
2023/01/22 03:03:52;;;;;;;;;51.50;41.00;;;;;5.15;48.97;102702.16;5093972;27;45582;-62
2023/01/22 03:06:20;;;;;;;;;50.25;37.00;;;;;4.93;48.68;102658.06;5100515;27;45413;-65
2023/01/22 03:08:47;;;;;;;;;50.75;37.25;;;;;5.13;48.18;102677.25;5100847;27;45646;-66
2023/01/22 03:11:12;;;;;;;;;45.25;36.50;;;;;5.14;48.79;102684.41;5099689;27;45464;-66
2023/01/22 03:21:50;;;;;;;;;48.50;36.00;;;;;5.11;49.17;102681.50;5095045;27;45399;-63
2023/01/22 03:24:15;;;;;;;;;53.00;35.25;;;;;5.09;48.07;102694.63;5095121;27;45519;-62
2023/01/22 03:26:41;;;;;;;;;53.50;39.50;;;;;5.09;49.03;102696.34;5089649;27;46409;-67
2023/01/22 03:29:06;;;;;;;;;54.75;40.25;;;;;5.08;48.05;102684.84;5095633;27;45512;-66
2023/01/22 03:31:31;;;;;;;;;56.25;39.00;;;;;5.12;48.22;102686.00;5089330;27;45471;-63
2023/01/22 03:33:57;;;;;;;;;53.00;37.75;;;;;5.10;48.47;102679.66;5094932;27;45333;-66
2023/01/22 03:36:22;;;;;;;;;38.50;32.50;;;;;5.11;48.50;102678.84;5098023;27;45630;-66
2023/01/22 03:38:48;;;;;;;;;44.25;38.75;;;;;4.93;48.61;102649.16;5097730;27;46252;-66
2023/01/22 03:41:16;;;;;;;;;57.50;38.00;;;;;5.12;49.01;102681.63;5095669;27;45351;-65
2023/01/22 03:43:41;;;;;;;;;48.50;40.50;;;;;5.16;48.72;102690.72;5095865;27;45365;-65
2023/01/22 03:46:15;;;;;;;;;48.75;40.00;;;;;5.15;49.08;102686.25;5095770;27;45389;-64
2023/01/22 03:48:41;;;;;;;;;36.50;36.00;;;;;4.98;48.36;102664.63;5093848;27;48142;-63
2023/01/22 03:51:15;;;;;;;;;42.00;38.50;;;;;5.04;48.58;102692.41;5088573;27;46057;-62
2023/01/22 03:53:42;;;;;;;;;48.25;36.50;;;;;4.95;48.72;102672.34;5075850;27;45593;-66
2023/01/22 03:56:11;;;;;;;;;43.50;34.00;;;;;5.12;48.42;102691.31;5095895;27;45448;-64
2023/01/22 03:58:38;;;;;;;;;48.75;38.25;;;;;5.15;48.71;102692.47;5095555;27;45495;-63
2023/01/22 04:01:06;;;;;;;;;48.75;38.75;;;;;5.21;48.33;102696.41;5091197;27;46173;-65
2023/01/22 04:03:32;;;;;;;;;44.75;36.25;;;;;5.21;48.89;102691.09;5096877;27;45474;-66
2023/01/22 04:06:00;;;;;;;;;46.25;38.75;;;;;5.18;48.49;102686.50;5100152;27;45349;-67
2023/01/22 04:08:31;;;;;;;;;43.00;36.25;;;;;5.20;48.89;102684.88;5079355;27;45527;-65
2023/01/22 04:10:56;;;;;;;;;41.50;33.25;;;;;5.26;48.73;102690.69;5100050;27;45435;-66
2023/01/22 04:13:23;;;;;;;;;36.75;29.75;;;;;5.30;48.61;102683.91;5101098;27;45526;-64
2023/01/22 04:15:49;;;;;;;;;48.75;36.00;;;;;5.31;48.30;102688.38;5099694;27;45572;-64
2023/01/22 04:18:14;;;;;;;;;45.00;33.75;;;;;5.28;48.66;102674.88;5099153;27;46143;-65
2023/01/22 04:20:39;;;;;;;;;44.50;36.25;;;;;5.23;49.12;102670.94;5101275;27;45472;-66
2023/01/22 04:23:06;;;;;;;;;39.75;36.25;;;;;5.27;48.54;102676.63;5097507;27;45897;-64
2023/01/22 04:25:32;;;;;;;;;40.75;30.00;;;;;5.27;48.57;102673.97;5098340;27;45361;-67
2023/01/22 04:27:57;;;;;;;;;33.25;27.25;;;;;5.14;48.66;102656.16;5101580;27;45365;-66
2023/01/22 04:30:23;;;;;;;;;46.00;36.25;;;;;5.20;48.94;102666.34;5098431;27;45562;-65
2023/01/22 04:32:48;;;;;;;;;38.50;34.50;;;;;5.14;48.84;102657.91;5099381;27;45238;-65
2023/01/22 04:35:13;;;;;;;;;45.25;35.25;;;;;5.16;49.27;102666.88;5081865;27;45493;-65
2023/01/22 04:37:39;;;;;;;;;40.50;30.75;;;;;5.12;48.32;102656.88;5097896;27;45431;-66
2023/01/22 04:40:05;;;;;;;;;42.00;32.50;;;;;5.02;48.49;102638.41;5098438;27;45307;-63
2023/01/22 04:42:33;;;;;;;;;37.00;33.25;;;;;5.08;48.96;102661.00;5097362;27;45536;-64
2023/01/22 04:44:59;;;;;;;;;41.25;31.25;;;;;5.08;48.21;102668.94;5082979;27;45686;-64
2023/01/22 04:47:24;;;;;;;;;36.75;29.25;;;;;4.93;48.13;102666.00;5097978;27;45373;-65
2023/01/22 04:49:49;;;;;;;;;39.25;32.25;;;;;4.86;48.55;102666.28;5098091;27;45372;-65
2023/01/22 04:52:15;;;;;;;;;41.50;33.25;;;;;4.83;48.94;102655.44;5104029;27;45560;-66
2023/01/22 04:54:40;;;;;;;;;38.50;33.00;;;;;4.82;48.79;102656.28;5107153;27;45378;-66
2023/01/22 04:57:06;;;;;;;;;36.25;25.50;;;;;4.86;48.80;102646.84;5110227;27;56511;-61
2023/01/22 04:59:31;;;;;;;;;40.50;31.00;;;;;4.90;49.17;102651.56;5104636;27;45188;-65
2023/01/22 05:01:56;;;;;;;;;43.75;31.25;;;;;4.92;49.02;102642.94;5104411;27;45767;-64
2023/01/22 05:04:22;;;;;;;;;30.25;28.75;;;;;4.93;49.11;102643.88;5100619;27;45412;-65
2023/01/22 05:06:48;;;;;;;;;40.50;27.75;;;;;4.65;48.99;102599.28;5097386;27;46114;-66
2023/01/22 05:09:13;;;;;;;;;36.00;28.75;;;;;4.91;48.45;102656.06;5072690;27;45459;-64
2023/01/22 05:11:39;;;;;;;;;39.75;30.00;;;;;4.84;48.53;102644.06;5096593;27;45236;-65
2023/01/22 05:14:05;;;;;;;;;34.50;29.25;;;;;4.82;48.66;102643.03;5084304;27;45658;-64
2023/01/22 05:16:30;;;;;;;;;29.00;27.50;;;;;4.58;48.61;102599.59;5079943;27;45903;-65
2023/01/22 05:18:56;;;;;;;;;42.00;30.50;;;;;4.83;49.02;102641.28;5075944;27;45717;-62
2023/01/22 05:21:22;;;;;;;;;41.00;31.00;;;;;4.85;49.38;102634.38;5083008;27;45446;-67
2023/01/22 05:23:47;;;;;;;;;43.00;33.50;;;;;4.88;49.55;102640.84;5080670;27;45454;-65
2023/01/22 05:26:12;;;;;;;;;30.00;26.25;;;;;4.88;48.73;102629.34;5079158;27;54315;-68
2023/01/22 05:28:38;;;;;;;;;34.50;29.00;;;;;4.87;49.01;102630.16;5066971;28;45208;-65
2023/01/22 05:31:03;;;;;;;;;32.75;28.75;;;;;4.86;48.96;102641.53;5085312;27;45479;-65
2023/01/22 05:33:29;;;;;;;;;34.50;30.00;;;;;4.90;49.16;102639.28;5075502;27;45504;-64
2023/01/22 05:36:00;;;;;;;;;40.25;28.25;;;;;4.77;48.59;102608.22;5071082;27;45359;-65
2023/01/22 05:38:26;;;;;;;;;32.75;28.75;;;;;4.95;48.91;102636.97;5075493;27;45366;-63
2023/01/22 05:40:52;;;;;;;;;25.00;19.00;;;;;4.88;49.35;102616.09;5075134;27;45371;-66
2023/01/22 05:43:17;;;;;;;;;33.00;27.25;;;;;4.93;48.94;102627.97;5059917;27;45470;-65
2023/01/22 05:45:42;;;;;;;;;44.00;28.75;;;;;4.89;49.23;102634.75;5082146;27;45400;-66
2023/01/22 05:48:08;;;;;;;;;38.50;31.75;;;;;4.91;49.23;102630.50;5082333;27;45433;-64
2023/01/22 05:50:33;;;;;;;;;35.00;30.00;;;;;4.84;49.23;102625.53;5058152;27;45421;-64
2023/01/22 05:52:59;;;;;;;;;42.25;34.25;;;;;4.83;49.01;102618.38;5084681;27;45716;-66
2023/01/22 05:55:24;;;;;;;;;40.25;31.25;;;;;4.88;49.50;102626.69;5083611;27;45918;-62
2023/01/22 05:57:49;;;;;;;;;37.25;32.75;;;;;4.83;49.34;102636.00;5083819;27;45224;-65
2023/01/22 06:00:15;;;;;;;;;28.75;24.25;;;;;4.81;49.53;102622.63;5062504;27;45534;-65
2023/01/22 06:02:41;;;;;;;;;41.50;36.50;;;;;4.90;49.57;102631.31;5087666;27;45537;-65
2023/01/22 06:05:07;;;;;;;;;43.75;29.25;;;;;4.85;49.04;102629.09;5072919;27;46635;-64
2023/01/22 06:07:32;;;;;;;;;32.00;24.25;;;;;4.86;50.07;102621.28;5063767;27;45531;-63
2023/01/22 06:09:57;;;;;;;;;40.25;33.50;;;;;4.88;49.93;102635.53;5077141;27;45336;-63
2023/01/22 06:12:23;;;;;;;;;39.75;32.75;;;;;4.56;49.83;102583.59;5075659;27;45443;-66
2023/01/22 06:14:49;;;;;;;;;37.75;26.25;;;;;4.77;49.90;102633.78;5097641;27;46299;-67
2023/01/22 06:17:15;;;;;;;;;36.50;33.25;;;;;4.84;50.13;102636.13;5078289;27;45873;-66
2023/01/22 06:19:41;;;;;;;;;30.25;25.25;;;;;4.84;50.47;102636.13;5096035;27;45459;-63
2023/01/22 06:22:06;;;;;;;;;43.25;33.75;;;;;4.87;50.24;102639.03;5094710;27;45495;-63
2023/01/22 06:24:32;;;;;;;;;35.75;24.50;;;;;4.85;49.83;102640.63;5096211;27;46331;-67
2023/01/22 06:26:57;;;;;;;;;33.00;27.25;;;;;4.83;50.58;102644.84;5096544;27;45346;-66
2023/01/22 06:29:22;;;;;;;;;42.75;28.50;;;;;4.80;50.12;102631.38;5094096;27;56505;-65
2023/01/22 06:31:48;;;;;;;;;40.00;27.75;;;;;4.83;50.76;102628.97;5050773;27;45595;-65
2023/01/22 06:34:13;;;;;;;;;41.25;32.00;;;;;4.80;50.14;102620.78;5089985;27;46053;-65
2023/01/22 06:36:39;;;;;;;;;35.25;27.50;;;;;4.85;50.35;102631.75;5096392;27;45610;-62
2023/01/22 06:39:04;;;;;;;;;50.50;39.75;;;;;4.76;50.58;102618.69;5097279;27;45342;-65
2023/01/22 06:41:29;;;;;;;;;39.75;30.25;;;;;4.92;50.91;102637.66;5099688;27;45430;-64
2023/01/22 06:43:55;;;;;;;;;25.50;21.75;;;;;4.86;50.36;102637.16;5090621;27;46022;-62
2023/01/22 06:46:20;;;;;;;;;36.75;31.00;;;;;4.92;50.37;102642.03;5095557;27;45244;-66
2023/01/22 06:48:45;;;;;;;;;30.50;29.00;;;;;4.91;50.35;102648.13;5096672;27;45366;-66
2023/01/22 06:51:11;;;;;;;;;45.25;32.75;;;;;4.88;50.57;102642.56;5096951;27;45603;-65
2023/01/22 06:53:37;;;;;;;;;37.75;31.50;;;;;4.82;51.40;102650.97;5091229;27;46141;-63
2023/01/22 06:56:03;;;;;;;;;38.75;32.00;;;;;4.78;51.40;102648.84;5095245;27;45383;-63
2023/01/22 06:58:29;;;;;;;;;37.50;28.00;;;;;4.83;51.13;102652.78;5095604;27;45534;-64
2023/01/22 07:00:59;;;;;;;;;51.25;33.25;;;;;4.84;51.13;102656.41;5092739;27;45618;-64
2023/01/22 07:03:24;;;;;;;;;43.00;31.25;;;;;4.72;51.47;102646.66;5096436;27;45473;-65
2023/01/22 07:06:00;;;;;;;;;35.50;26.25;;;;;4.83;51.33;102655.44;5095083;27;52187;-65
2023/01/22 07:08:27;;;;;;;;;41.25;36.75;;;;;4.83;51.56;102652.78;5077192;27;45552;-68
2023/01/22 07:10:53;;;;;;;;;42.00;34.25;;;;;4.82;51.70;102664.22;5094649;27;45436;-65
2023/01/22 07:13:18;;;;;;;;;32.00;26.50;;;;;4.84;51.54;102669.63;5094481;27;45543;-66
2023/01/22 07:15:44;;;;;;;;;25.75;22.25;;;;;4.84;51.44;102661.69;5076682;27;45457;-62
2023/01/22 07:18:10;;;;;;;;;34.75;29.50;;;;;4.84;52.16;102669.63;5094448;27;45353;-63
2023/01/22 07:20:35;;;;;;;;;41.25;29.25;;;;;4.53;51.80;102619.50;5091239;27;45591;-64
2023/01/22 07:23:01;;;;;;;;;39.75;32.00;;;;;4.73;52.28;102669.66;5092612;27;45530;-63
2023/01/22 07:25:26;;;;;;;;;42.25;29.75;;;;;4.73;52.75;102661.72;5095661;27;48855;-62
2023/01/22 07:27:57;;;;;;;;;33.75;26.00;;;;;4.77;52.12;102665.56;5093617;27;45526;-64
2023/01/22 07:30:22;;;;;;;;;40.75;31.75;;;;;4.72;52.75;102659.91;5095166;27;45448;-67
2023/01/22 07:32:48;;;;;;;;;40.75;29.00;;;;;4.80;52.29;102679.97;5092416;27;51221;-65
2023/01/22 07:35:13;;;;;;;;;34.00;26.75;;;;;4.85;51.94;102683.00;5095139;27;46325;-65
2023/01/22 07:37:38;;;;;;;;;36.75;28.00;;;;;4.91;52.35;102688.75;5086312;27;45531;-66
2023/01/22 07:40:04;;;;;;;;;33.25;25.75;;;;;4.87;51.96;102681.41;5090470;27;45404;-65
2023/01/22 07:42:30;;;;;;;;;38.00;26.50;;;;;4.85;51.99;102664.47;5093391;27;45694;-66
2023/01/22 07:44:55;;;;;;;;;34.25;27.00;;;;;4.95;52.18;102680.28;5092149;27;45583;-64
2023/01/22 07:47:20;;;;;;;;;31.25;28.25;;;;;5.08;51.45;102698.09;5087845;27;45774;-64
2023/01/22 07:49:46;;;;;;;;;34.00;28.50;;;;;5.12;51.86;102686.00;5088942;27;45541;-65
2023/01/22 07:52:11;;;;;;;;;34.25;22.75;;;;;5.06;51.82;102698.75;5090108;27;45983;-67
2023/01/22 07:54:36;;;;;;;;;38.75;30.50;;;;;5.08;51.43;102687.50;5088578;27;45398;-67
2023/01/22 07:57:02;;;;;;;;;27.25;24.25;;;;;5.12;51.36;102696.59;5080265;27;51886;-63
2023/01/22 07:59:28;;;;;;;;;35.75;23.50;;;;;5.12;51.74;102691.31;5092865;27;45319;-66
2023/01/22 08:01:54;;;;;;;;;35.50;27.75;;;;;5.16;51.95;102701.34;5095104;27;46027;-64
2023/01/22 08:04:19;;;;;;;;;40.00;31.00;;;;;4.87;51.92;102656.66;5094470;27;45543;-66
2023/01/22 08:06:45;;;;;;;;;39.00;24.00;;;;;4.97;52.29;102693.66;5094683;27;45594;-65
2023/01/22 08:09:10;;;;;;;;;38.50;23.75;;;;;5.03;52.25;102701.16;5097212;27;45456;-65
2023/01/22 08:11:35;;;;;;;;;29.50;24.00;;;;;5.03;52.19;102709.09;5094831;27;45588;-64
2023/01/22 08:14:01;;;;;;;;;39.75;29.00;;;;;5.05;52.07;102699.53;5096590;27;45651;-67
2023/01/22 08:16:26;;;;;;;;;29.25;27.00;;;;;5.07;52.23;102711.22;5095298;27;45452;-66
2023/01/22 08:18:52;;;;;;;;;39.00;27.75;;;;;4.83;51.96;102676.63;5095382;27;48605;-66
2023/01/22 08:21:17;;;;;;;;;39.25;30.50;;;;;4.95;52.04;102717.38;5092791;27;47107;-66
2023/01/22 08:23:43;;;;;;;;;31.00;24.75;;;;;4.78;52.23;102686.88;5093927;27;45546;-66
2023/01/22 08:26:08;;;;;;;;;34.75;29.75;;;;;4.86;52.07;102684.81;5095060;27;45307;-65
2023/01/22 08:28:35;;;;;;;;;30.00;22.75;;;;;4.94;51.98;102704.91;5094900;27;45444;-66
2023/01/22 08:31:02;;;;;;;;;43.25;28.75;;;;;5.01;52.53;102708.06;5093664;27;45479;-66
2023/01/22 08:33:32;;;;;;;;;39.50;31.25;;;;;5.11;52.35;102722.16;5093870;27;45464;-63
2023/01/22 08:35:57;;;;;;;;;36.75;28.00;;;;;5.09;52.39;102715.81;5078094;27;45504;-64
2023/01/22 08:38:22;;;;;;;;;31.75;25.75;;;;;5.06;52.14;102712.00;5072654;27;45632;-66
2023/01/22 08:40:52;;;;;;;;;33.25;27.75;;;;;5.03;52.01;102703.81;5089790;27;45641;-65
2023/01/22 08:43:17;;;;;;;;;44.50;25.75;;;;;5.12;52.43;102709.84;5083802;27;45413;-65
2023/01/22 08:45:49;;;;;;;;;43.75;25.75;;;;;5.17;51.64;102724.38;5097844;27;45719;-66
2023/01/22 08:48:15;;;;;;;;;32.75;24.25;;;;;5.13;52.25;102719.63;5095531;27;45330;-61
2023/01/22 08:50:40;;;;;;;;;34.50;28.00;;;;;5.11;52.26;102718.59;5094632;27;46056;-67
2023/01/22 08:53:06;;;;;;;;;28.50;26.50;;;;;5.21;51.67;102730.84;5092521;27;45476;-65
2023/01/22 08:55:31;;;;;;;;;31.00;27.00;;;;;5.21;51.76;102728.19;5094918;27;45620;-67
2023/01/22 08:57:57;;;;;;;;;36.25;26.50;;;;;5.20;51.43;102737.88;5097203;27;45349;-66
2023/01/22 09:00:24;;;;;;;;;24.50;24.50;;;;;5.23;51.97;102748.75;5096974;27;45527;-65
2023/01/22 09:02:49;;;;;;;;;24.75;24.75;;;;;5.13;52.01;102727.56;5095110;27;45810;-65
2023/01/22 09:05:15;;;;;;;;;34.75;28.50;;;;;5.26;51.34;102746.34;5092919;27;45495;-64
2023/01/22 09:07:40;;;;;;;;;30.00;25.50;;;;;5.28;52.05;102735.84;5078973;27;45535;-66
2023/01/22 09:10:07;;;;;;;;;34.50;24.50;;;;;5.30;51.39;102740.47;5091202;27;47708;-67
2023/01/22 09:12:35;;;;;;;;;31.50;26.50;;;;;5.31;51.70;102726.44;5099468;27;45686;-65
2023/01/22 09:15:01;;;;;;;;;28.25;23.50;;;;;5.37;51.60;102727.72;5081936;27;45453;-65
2023/01/22 09:17:26;;;;;;;;;29.25;22.00;;;;;5.12;50.96;102689.56;5071442;27;45497;-65
2023/01/22 09:19:52;;;;;;;;;29.75;24.00;;;;;5.29;51.38;102721.78;5080969;27;45497;-62
2023/01/22 09:22:19;;;;;;;;;34.50;25.00;;;;;5.02;51.04;102678.13;5055323;28;45462;-67
2023/01/22 09:24:44;;;;;;;;;38.25;29.50;;;;;5.28;51.87;102726.19;5076867;27;45389;-62
2023/01/22 09:27:10;;;;;;;;;35.25;27.75;;;;;5.29;51.27;102732.38;5087106;27;45434;-61
2023/01/22 09:29:36;;;;;;;;;46.50;28.50;;;;;5.27;51.49;102721.66;5076592;27;46199;-62
2023/01/22 09:32:01;;;;;;;;;30.00;27.50;;;;;5.37;51.90;102733.00;5083488;27;45429;-62
2023/01/22 09:34:27;;;;;;;;;30.50;25.50;;;;;5.41;50.98;102732.44;5078488;27;45426;-65
2023/01/22 09:36:52;;;;;;;;;15.00;15.00;;;;;5.27;51.18;102720.75;5079664;27;45457;-62
2023/01/22 09:39:17;;;;;;;;;41.25;28.75;;;;;5.40;51.29;102733.25;5074291;27;45629;-62
2023/01/22 09:41:47;;;;;;;;;30.25;25.50;;;;;5.44;51.09;102740.63;5082276;27;51869;-62
2023/01/22 09:44:28;;;;;;;;;29.25;26.00;;;;;5.53;51.31;102749.34;5076845;27;45335;-63
2023/01/22 09:47:00;;;;;;;;;27.50;25.25;;;;;5.47;50.68;102722.31;5077035;27;45393;-61
2023/01/22 09:49:33;;;;;;;;;39.00;26.75;;;;;5.61;50.32;102734.00;5075766;27;46924;-63
2023/01/22 09:52:01;;;;;;;;;37.75;31.25;;;;;5.55;51.09;102729.16;5079536;27;45389;-63
2023/01/22 09:54:28;;;;;;;;;28.50;26.75;;;;;5.79;50.81;102756.69;5082934;27;45425;-62
2023/01/22 09:56:59;;;;;;;;;34.00;24.25;;;;;5.70;50.55;102726.78;5075654;27;45412;-62
2023/01/22 09:59:26;;;;;;;;;30.00;25.75;;;;;5.83;50.66;102757.84;5086163;27;46493;-63
2023/01/22 10:01:59;;;;;;;;;33.75;27.25;;;;;5.70;50.57;102740.94;5071817;27;45520;-62
2023/01/22 10:04:40;;;;;;;;;18.00;14.00;;;;;5.89;50.61;102756.59;5077598;27;45662;-63
2023/01/22 10:07:14;;;;;;;;;30.25;26.75;;;;;5.92;50.23;102755.88;5076363;27;45446;-63
2023/01/22 10:09:44;;;;;;;;;41.25;31.75;;;;;5.96;50.17;102762.38;5078174;27;45378;-63
2023/01/22 10:12:13;;;;;;;;;50.50;38.00;;;;;5.90;50.23;102750.47;5074531;27;45569;-62
2023/01/22 10:14:40;;;;;;;;;37.75;26.50;;;;;6.02;50.24;102769.13;5073050;27;45408;-63
2023/01/22 10:17:17;;;;;;;;;35.50;29.25;;;;;5.93;50.27;102738.25;5082106;27;45533;-63
2023/01/22 10:19:45;;;;;;;;;33.50;28.25;;;;;6.03;49.87;102759.41;5076155;27;46064;-62
2023/01/22 10:22:18;;;;;;;;;26.75;25.00;;;;;6.04;50.19;102755.97;5059306;28;45514;-63
2023/01/22 10:24:44;;;;;;;;;26.00;22.00;;;;;6.01;50.46;102746.03;5065214;28;46059;-62
2023/01/22 10:27:15;;;;;;;;;34.25;29.00;;;;;6.07;50.09;102743.84;5070698;27;45350;-65
2023/01/22 10:29:44;;;;;;;;;35.25;28.50;;;;;5.95;50.33;102728.69;5079868;27;46333;-62
2023/01/22 10:32:25;;;;;;;;;35.75;29.25;;;;;6.08;49.76;102745.69;5061455;28;45615;-62
2023/01/22 10:35:10;;;;;;;;;27.00;23.25;;;;;6.09;49.74;102747.53;5080656;27;45291;-62
2023/01/22 10:37:44;;;;;;;;;20.00;18.50;;;;;6.08;50.02;102747.44;5078250;27;45458;-63
2023/01/22 10:40:19;;;;;;;;;34.75;31.75;;;;;6.07;49.79;102748.22;5094612;27;45664;-63
2023/01/22 10:42:44;;;;;;;;;33.75;28.75;;;;;6.06;50.21;102734.03;5074910;27;45413;-62
2023/01/22 10:45:18;;;;;;;;;31.50;27.25;;;;;6.03;49.70;102736.44;5075484;27;45359;-62
2023/01/22 10:47:43;;;;;;;;;29.75;24.25;;;;;6.01;49.88;102732.75;5081208;27;45345;-62
2023/01/22 10:50:15;;;;;;;;;24.50;24.50;;;;;6.07;50.24;102740.25;5084720;27;45280;-62
2023/01/22 10:52:44;;;;;;;;;39.25;35.75;;;;;6.00;50.16;102717.63;5074515;27;45464;-63
2023/01/22 10:55:30;;;;;;;;;57.00;42.00;;;;;6.07;49.99;102738.56;5080134;27;45514;-63
2023/01/22 10:58:13;;;;;;;;;44.50;38.25;;;;;6.05;49.73;102728.59;5074221;27;45466;-63
2023/01/22 11:00:39;;;;;;;;;36.50;31.00;;;;;6.06;50.12;102744.66;5078557;27;45957;-62
2023/01/22 11:03:21;;;;;;;;;38.50;33.75;;;;;5.73;50.21;102692.53;5077940;27;45448;-62
2023/01/22 11:05:54;;;;;;;;;37.25;28.75;;;;;6.06;49.73;102736.69;5076911;27;45307;-63
2023/01/22 11:08:26;;;;;;;;;35.75;26.75;;;;;6.11;50.09;102725.53;5056884;28;45358;-62
2023/01/22 11:11:04;;;;;;;;;31.25;27.25;;;;;6.13;49.75;102721.25;5062007;27;46945;-62
2023/01/22 11:13:52;;;;;;;;;37.25;24.00;;;;;6.16;49.46;102734.75;5067660;27;45727;-62
2023/01/22 11:16:20;;;;;;;;;35.50;29.00;;;;;6.16;49.26;102726.78;5094887;27;45301;-64
2023/01/22 11:19:00;;;;;;;;;40.75;32.25;;;;;6.17;49.64;102724.25;5075184;27;45495;-63
2023/01/22 11:21:32;;;;;;;;;26.25;18.00;;;;;6.19;49.31;102721.72;5093124;27;46114;-62
2023/01/22 11:24:13;;;;;;;;;21.25;21.25;;;;;6.20;49.27;102718.25;5092596;27;45706;-63